createdAt,value
2022-08-01T00:01:51.257Z,10.60
2022-08-01T00:04:19.022Z,11.15
2022-08-01T00:06:50.332Z,10.40
2022-08-01T00:09:23.732Z,11.38
2022-08-01T00:11:59.946Z,9.95
2022-08-01T00:14:48.309Z,10.77
2022-08-01T00:17:18.280Z,11.98
2022-08-01T00:19:46.051Z,10.05
2022-08-01T00:22:14.058Z,9.60
2022-08-01T00:24:41.881Z,10.85
2022-08-01T00:27:09.857Z,9.15
2022-08-01T00:30:12.591Z,8.35
2022-08-01T00:32:28.061Z,16.83
2022-08-01T00:34:56.693Z,9.43
2022-08-01T00:37:26.192Z,10.98
2022-08-01T00:39:54.317Z,10.55
2022-08-01T00:42:22.270Z,9.02
2022-08-01T00:44:50.211Z,8.15
2022-08-01T00:47:17.936Z,8.82
2022-08-01T00:49:45.931Z,7.90
2022-08-01T00:52:13.900Z,8.18
2022-08-01T00:54:42.585Z,8.23
2022-08-01T00:57:11.059Z,7.72
2022-08-01T00:59:41.304Z,7.75
2022-08-01T01:02:36.153Z,8.43
2022-08-01T01:05:07.567Z,8.90
2022-08-01T01:07:53.540Z,9.20
2022-08-01T01:10:36.563Z,14.63
2022-08-01T01:13:33.054Z,15.30
2022-08-01T01:16:19.931Z,10.15
2022-08-01T01:19:01.720Z,10.75
2022-08-01T01:21:35.520Z,9.85
2022-08-01T01:24:32.734Z,10.98
2022-08-01T01:27:32.889Z,13.07
2022-08-01T01:30:02.298Z,10.48
2022-08-01T01:32:39.119Z,11.25
2022-08-01T01:35:16.738Z,11.63
2022-08-01T01:37:49.152Z,11.23
2022-08-01T01:40:22.549Z,18.10
2022-08-01T01:42:53.152Z,12.60
2022-08-01T01:45:26.769Z,9.68
2022-08-01T01:47:57.500Z,16.35
2022-08-01T01:50:28.618Z,10.38
2022-08-01T01:55:26.937Z,12.93
2022-08-01T01:57:56.888Z,9.45
2022-08-01T02:00:26.161Z,15.10
2022-08-01T02:02:57.775Z,9.00
2022-08-01T02:05:29.213Z,10.88
2022-08-01T02:07:59.374Z,8.88
2022-08-01T02:10:28.928Z,8.68
2022-08-01T02:13:00.902Z,9.73
2022-08-01T02:15:31.074Z,9.35
2022-08-01T02:18:00.739Z,10.07
2022-08-01T02:20:31.942Z,10.45
2022-08-01T02:23:13.123Z,9.00
2022-08-01T02:26:09.702Z,9.27
2022-08-01T02:28:42.853Z,8.52
2022-08-01T02:31:17.944Z,9.85
2022-08-01T02:33:56.643Z,9.95
2022-08-01T02:36:31.642Z,8.95
2022-08-01T02:39:07.606Z,17.98
2022-08-01T02:41:42.288Z,9.00
2022-08-01T02:44:22.647Z,9.40
2022-08-01T02:47:13.802Z,9.50
2022-08-01T02:49:46.355Z,9.80
2022-08-01T02:52:17.432Z,12.68
2022-08-01T02:55:13.080Z,9.23
2022-08-01T02:57:52.576Z,9.75
2022-08-01T03:00:26.098Z,11.35
2022-08-01T03:02:56.324Z,10.30
2022-08-01T03:05:26.357Z,15.93
2022-08-01T03:07:56.666Z,9.07
2022-08-01T03:10:32.484Z,9.00
2022-08-01T03:13:26.946Z,10.25
2022-08-01T03:15:57.025Z,10.45
2022-08-01T03:18:26.982Z,9.52
2022-08-01T03:20:57.482Z,10.23
2022-08-01T03:23:37.832Z,10.15
2022-08-01T03:26:33.301Z,10.00
2022-08-01T03:29:22.184Z,10.48
2022-08-01T03:31:50.635Z,10.07
2022-08-01T03:34:18.863Z,10.27
2022-08-01T03:36:51.028Z,16.33
2022-08-01T03:39:26.349Z,9.80
2022-08-01T03:42:22.064Z,10.32
2022-08-01T03:44:55.845Z,11.20
2022-08-01T03:47:43.478Z,10.88
2022-08-01T03:50:15.335Z,10.00
2022-08-01T03:52:47.791Z,10.38
2022-08-01T03:55:42.429Z,11.77
2022-08-01T03:58:11.778Z,11.25
2022-08-01T04:00:40.878Z,10.60
2022-08-01T04:03:10.186Z,10.43
2022-08-01T04:05:38.206Z,10.45
2022-08-01T04:08:06.159Z,11.10
2022-08-01T04:10:34.166Z,10.90
2022-08-01T04:13:02.035Z,11.68
2022-08-01T04:15:33.001Z,11.10
2022-08-01T04:18:02.144Z,11.10
2022-08-01T04:20:30.118Z,10.98
2022-08-01T04:22:57.849Z,10.60
2022-08-01T04:25:36.409Z,10.88
2022-08-01T04:28:09.035Z,12.00
2022-08-01T04:31:03.985Z,14.65
2022-08-01T04:33:43.677Z,13.55
2022-08-01T04:36:16.048Z,12.55
2022-08-01T04:38:49.761Z,12.57
2022-08-01T04:41:19.937Z,12.80
2022-08-01T04:43:48.240Z,14.50
2022-08-01T04:46:18.658Z,12.88
2022-08-01T04:49:13.094Z,12.53
2022-08-01T04:52:01.372Z,11.75
2022-08-01T04:54:31.113Z,11.32
2022-08-01T04:57:01.251Z,12.73
2022-08-01T04:59:42.313Z,11.93
2022-08-01T05:02:17.287Z,12.85
2022-08-01T05:05:13.600Z,11.90
2022-08-01T05:07:45.422Z,12.80
2022-08-01T05:10:13.734Z,13.10
2022-08-01T05:12:41.572Z,13.13
2022-08-01T05:15:15.253Z,14.48
2022-08-01T05:17:43.964Z,13.25
2022-08-01T05:20:13.519Z,14.20
2022-08-01T05:22:41.487Z,14.10
2022-08-01T05:25:09.511Z,15.00
2022-08-01T05:27:40.721Z,15.73
2022-08-01T05:30:10.435Z,14.90
2022-08-01T05:32:38.360Z,19.30
2022-08-01T05:35:06.820Z,18.60
2022-08-01T05:37:42.733Z,16.48
2022-08-01T05:40:11.480Z,19.13
2022-08-01T05:43:07.226Z,17.05
2022-08-01T05:45:39.941Z,17.42
2022-08-01T05:48:09.512Z,16.38
2022-08-01T05:50:38.291Z,18.40
2022-08-01T05:53:06.366Z,14.43
2022-08-01T05:55:34.361Z,12.55
2022-08-01T05:58:03.280Z,12.55
2022-08-01T06:00:31.209Z,12.00
2022-08-01T06:02:59.129Z,13.15
2022-08-01T06:05:27.293Z,12.25
2022-08-01T06:07:55.208Z,12.65
2022-08-01T06:10:23.195Z,12.90
2022-08-01T06:12:51.201Z,13.20
2022-08-01T06:15:18.967Z,13.57
2022-08-01T06:17:48.277Z,12.18
2022-08-01T06:20:16.471Z,11.85
2022-08-01T06:22:44.338Z,12.50
2022-08-01T06:25:21.372Z,13.15
2022-08-01T06:27:50.866Z,11.57
2022-08-01T06:30:22.471Z,12.77
2022-08-01T06:32:50.444Z,11.93
2022-08-01T06:35:18.362Z,9.93
2022-08-01T06:37:48.284Z,10.75
2022-08-01T06:40:17.452Z,11.00
2022-08-01T06:42:47.935Z,10.38
2022-08-01T06:45:16.799Z,10.80
2022-08-01T06:47:50.787Z,8.23
2022-08-01T06:50:19.287Z,10.35
2022-08-01T06:52:47.100Z,8.57
2022-08-01T06:55:15.379Z,9.30
2022-08-01T06:57:53.686Z,7.15
2022-08-01T07:00:25.642Z,6.93
2022-08-01T07:02:59.922Z,6.63
2022-08-01T07:05:53.979Z,7.95
2022-08-01T07:08:22.419Z,6.93
2022-08-01T07:10:51.298Z,7.05
2022-08-01T07:13:22.742Z,6.25
2022-08-01T07:15:51.350Z,8.13
2022-08-01T07:18:19.113Z,7.70
2022-08-01T07:20:51.160Z,6.22
2022-08-01T07:23:22.674Z,9.95
2022-08-01T07:26:22.863Z,5.68
2022-08-01T07:28:50.661Z,5.78
2022-08-01T07:31:22.338Z,5.25
2022-08-01T07:33:51.867Z,8.38
2022-08-01T07:36:20.181Z,7.72
2022-08-01T07:38:48.589Z,5.03
2022-08-01T07:41:18.445Z,5.25
2022-08-01T07:43:56.084Z,9.60
2022-08-01T07:46:50.883Z,6.40
2022-08-01T07:49:18.909Z,5.55
2022-08-01T07:52:03.311Z,4.95
2022-08-01T07:54:34.691Z,6.22
2022-08-01T07:57:05.181Z,5.25
2022-08-01T07:59:33.596Z,6.00
2022-08-01T08:02:02.332Z,5.45
2022-08-01T08:04:30.799Z,6.03
2022-08-01T08:07:00.184Z,4.47
2022-08-01T08:09:52.878Z,4.25
2022-08-01T08:12:48.063Z,5.20
2022-08-01T08:15:41.031Z,4.07
2022-08-01T08:18:09.020Z,4.40
2022-08-01T08:20:38.218Z,4.00
2022-08-01T08:23:42.925Z,5.35
2022-08-01T08:26:39.288Z,6.10
2022-08-01T08:29:09.162Z,5.07
2022-08-01T08:31:51.353Z,5.82
2022-08-01T08:34:22.111Z,3.95
2022-08-01T08:36:51.249Z,4.57
2022-08-01T08:39:20.234Z,4.05
2022-08-01T08:41:50.152Z,4.40
2022-08-01T08:44:44.464Z,3.97
2022-08-01T08:47:19.781Z,3.10
2022-08-01T08:49:52.541Z,3.60
2022-08-01T08:52:25.610Z,3.85
2022-08-01T08:54:57.930Z,4.15
2022-08-01T08:57:52.157Z,5.55
2022-08-01T09:00:20.183Z,4.65
2022-08-01T09:02:50.473Z,4.28
2022-08-01T09:05:20.267Z,4.57
2022-08-01T09:07:48.033Z,4.00
2022-08-01T09:10:16.047Z,3.58
2022-08-01T09:13:14.137Z,4.25
2022-08-01T09:16:07.002Z,4.50
2022-08-01T09:18:44.807Z,6.50
2022-08-01T09:21:38.129Z,7.60
2022-08-01T09:24:17.565Z,4.60
2022-08-01T09:26:59.510Z,5.88
2022-08-01T09:29:37.687Z,6.35
2022-08-01T09:32:07.630Z,4.10
2022-08-01T09:34:35.886Z,10.32
2022-08-01T09:37:05.729Z,5.03
2022-08-01T09:39:40.703Z,7.20
2022-08-01T09:42:29.121Z,5.10
2022-08-01T09:44:57.600Z,6.40
2022-08-01T09:47:39.588Z,3.67
2022-08-01T09:50:11.025Z,5.63
2022-08-01T09:52:41.242Z,3.78
2022-08-01T09:55:10.434Z,3.75
2022-08-01T09:57:39.166Z,14.43
2022-08-01T10:00:35.706Z,5.53
2022-08-01T10:03:24.153Z,3.60
2022-08-01T10:05:54.764Z,3.22
2022-08-01T10:08:24.475Z,2.70
2022-08-01T10:11:12.431Z,3.63
2022-08-01T10:13:41.380Z,5.20
2022-08-01T10:16:10.601Z,3.80
2022-08-01T10:18:42.263Z,3.15
2022-08-01T10:21:13.406Z,3.40
2022-08-01T10:23:42.864Z,3.50
2022-08-01T10:26:13.418Z,7.13
2022-08-01T10:28:42.308Z,9.77
2022-08-01T10:31:12.745Z,4.45
2022-08-01T10:33:52.470Z,3.40
2022-08-01T10:36:25.457Z,3.55
2022-08-01T10:38:56.642Z,3.30
2022-08-01T10:43:56.918Z,3.70
2022-08-01T10:46:26.273Z,3.03
2022-08-01T10:49:27.069Z,3.10
2022-08-01T10:51:56.107Z,3.20
2022-08-01T10:54:26.807Z,3.30
2022-08-01T10:56:57.598Z,3.38
2022-08-01T10:59:49.621Z,3.10
2022-08-01T11:02:32.218Z,2.92
2022-08-01T11:05:19.939Z,4.97
2022-08-01T11:07:53.979Z,3.80
2022-08-01T11:10:30.930Z,3.80
2022-08-01T11:13:00.267Z,5.10
2022-08-01T11:15:30.867Z,3.88
2022-08-01T11:18:04.505Z,3.30
2022-08-01T11:20:41.953Z,6.30
2022-08-01T11:23:13.867Z,4.10
2022-08-01T11:26:05.364Z,4.20
2022-08-01T11:28:36.876Z,5.90
2022-08-01T11:31:11.054Z,2.88
2022-08-01T11:33:45.868Z,2.45
2022-08-01T11:36:15.654Z,2.80
2022-08-01T11:39:13.869Z,4.47
2022-08-01T11:41:44.935Z,6.95
2022-08-01T11:44:20.850Z,9.23
2022-08-01T11:47:09.403Z,3.80
2022-08-01T11:50:03.834Z,4.00
2022-08-01T11:52:42.101Z,5.80
2022-08-01T11:55:11.471Z,3.60
2022-08-01T11:57:40.156Z,4.00
2022-08-01T12:00:18.062Z,3.97
2022-08-01T12:02:48.136Z,3.83
2022-08-01T12:05:24.870Z,6.20
2022-08-01T12:07:56.559Z,3.78
2022-08-01T12:10:34.090Z,3.78
2022-08-01T12:13:28.073Z,5.18
2022-08-01T12:15:56.920Z,3.85
2022-08-01T12:18:24.985Z,3.55
2022-08-01T12:21:01.965Z,3.65
2022-08-01T12:23:31.343Z,3.50
2022-08-01T12:25:59.312Z,4.20
2022-08-01T12:28:28.565Z,4.00
2022-08-01T12:30:56.611Z,3.65
2022-08-01T12:33:25.928Z,3.75
2022-08-01T12:35:54.070Z,4.60
2022-08-01T12:38:24.207Z,4.97
2022-08-01T12:40:53.601Z,4.85
2022-08-01T12:46:01.674Z,4.05
2022-08-01T12:48:32.464Z,3.70
2022-08-01T12:53:41.269Z,3.65
2022-08-01T12:56:14.147Z,3.80
2022-08-01T12:58:42.073Z,3.80
2022-08-01T13:01:12.571Z,4.00
2022-08-01T13:03:41.268Z,3.63
2022-08-01T13:06:17.919Z,3.97
2022-08-01T13:08:46.578Z,3.80
2022-08-01T13:11:17.745Z,5.28
2022-08-01T13:13:53.892Z,4.65
2022-08-01T13:16:49.129Z,4.10
2022-08-01T13:19:19.377Z,4.22
2022-08-01T13:22:02.549Z,3.95
2022-08-01T13:24:31.996Z,4.47
2022-08-01T13:27:04.438Z,4.70
2022-08-01T13:29:35.948Z,4.18
2022-08-01T13:32:28.357Z,3.95
2022-08-01T13:35:09.728Z,4.40
2022-08-01T13:37:39.371Z,5.93
2022-08-01T13:40:09.136Z,3.67
2022-08-01T13:42:38.234Z,4.00
2022-08-01T13:45:11.903Z,4.40
2022-08-01T13:48:03.823Z,4.85
2022-08-01T13:50:33.583Z,5.63
2022-08-01T13:53:27.073Z,5.63
2022-08-01T13:55:55.493Z,6.28
2022-08-01T13:58:27.504Z,6.20
2022-08-01T14:00:56.819Z,5.40
2022-08-01T14:03:33.334Z,5.72
2022-08-01T14:06:03.144Z,6.10
2022-08-01T14:08:32.252Z,11.90
2022-08-01T14:11:00.859Z,7.10
2022-08-01T14:13:33.802Z,7.55
2022-08-01T14:16:06.503Z,11.18
2022-08-01T14:18:34.878Z,7.50
2022-08-01T14:21:06.014Z,6.28
2022-08-01T14:23:33.894Z,6.90
2022-08-01T14:26:08.397Z,5.70
2022-08-01T14:28:40.455Z,6.75
2022-08-01T14:31:09.059Z,7.55
2022-08-01T14:33:37.616Z,6.90
2022-08-01T14:36:30.493Z,7.50
2022-08-01T14:38:55.616Z,6.18
2022-08-01T14:41:30.773Z,7.22
2022-08-01T14:44:00.841Z,6.00
2022-08-01T14:46:34.032Z,6.20
2022-08-01T14:49:02.118Z,5.95
2022-08-01T14:51:34.307Z,5.95
2022-08-01T14:54:02.222Z,5.47
2022-08-01T14:56:35.510Z,5.55
2022-08-01T14:59:03.694Z,6.90
2022-08-01T15:01:49.085Z,7.18
2022-08-01T15:04:18.474Z,5.93
2022-08-01T15:06:46.583Z,6.75
2022-08-01T15:09:14.320Z,6.25
2022-08-01T15:11:42.435Z,6.95
2022-08-01T15:14:28.689Z,6.47
2022-08-01T15:16:56.805Z,6.30
2022-08-01T15:19:24.836Z,8.20
2022-08-01T15:21:52.700Z,6.97
2022-08-01T15:24:23.826Z,7.10
2022-08-01T15:26:52.284Z,6.60
2022-08-01T15:29:22.464Z,7.07
2022-08-01T15:31:50.729Z,6.15
2022-08-01T15:34:19.308Z,7.40
2022-08-01T15:37:12.312Z,6.50
2022-08-01T15:39:40.635Z,7.50
2022-08-01T15:45:20.738Z,8.53
2022-08-01T15:47:54.009Z,11.88
2022-08-01T15:50:22.081Z,11.07
2022-08-01T15:52:52.699Z,8.52
2022-08-01T15:55:20.963Z,7.68
2022-08-01T15:57:48.857Z,8.20
2022-08-01T16:00:17.235Z,7.82
2022-08-01T16:02:44.959Z,7.53
2022-08-01T16:05:19.700Z,6.53
2022-08-01T16:07:59.611Z,5.38
2022-08-01T16:10:31.136Z,6.40
2022-08-01T16:13:04.469Z,6.50
2022-08-01T16:15:45.623Z,6.47
2022-08-01T16:18:14.704Z,6.00
2022-08-01T16:20:47.469Z,5.68
2022-08-01T16:23:16.145Z,5.28
2022-08-01T16:25:45.135Z,5.60
2022-08-01T16:28:14.559Z,6.07
2022-08-01T16:30:48.675Z,5.57
2022-08-01T16:33:45.852Z,5.60
2022-08-01T16:36:16.633Z,5.28
2022-08-01T16:38:47.948Z,5.60
2022-08-01T16:41:20.626Z,5.20
2022-08-01T16:43:53.476Z,5.03
2022-08-01T16:46:43.828Z,4.97
2022-08-01T16:49:20.871Z,5.75
2022-08-01T16:51:49.639Z,5.78
2022-08-01T16:54:25.185Z,5.95
2022-08-01T16:57:08.748Z,6.45
2022-08-01T17:02:15.930Z,5.35
2022-08-01T17:04:44.341Z,5.47
2022-08-01T17:07:13.690Z,6.65
2022-08-01T17:09:43.638Z,6.13
2022-08-01T17:12:22.415Z,6.95
2022-08-01T17:14:52.009Z,7.05
2022-08-01T17:17:21.130Z,6.13
2022-08-01T17:19:50.465Z,7.20
2022-08-01T17:22:19.370Z,6.85
2022-08-01T17:24:51.445Z,6.90
2022-08-01T17:27:20.493Z,6.95
2022-08-01T17:29:48.632Z,6.95
2022-08-01T17:32:42.588Z,6.18
2022-08-01T17:35:37.305Z,6.82
2022-08-01T17:38:05.330Z,6.03
2022-08-01T17:40:41.571Z,6.53
2022-08-01T17:43:10.437Z,7.38
2022-08-01T17:45:50.168Z,6.78
2022-08-01T17:50:48.682Z,7.55
2022-08-01T17:53:21.116Z,14.15
2022-08-01T17:55:55.797Z,7.00
2022-08-01T17:58:49.649Z,6.60
2022-08-01T18:01:27.052Z,6.30
2022-08-01T18:03:57.532Z,6.97
2022-08-01T18:06:27.475Z,6.43
2022-08-01T18:08:56.686Z,7.55
2022-08-01T18:11:28.505Z,7.35
2022-08-01T18:13:59.557Z,7.20
2022-08-01T18:16:28.739Z,7.00
2022-08-01T18:18:57.132Z,6.80
2022-08-01T18:21:25.534Z,6.40
2022-08-01T18:23:53.613Z,7.40
2022-08-01T18:26:22.912Z,5.60
2022-08-01T18:28:50.952Z,5.78
2022-08-01T18:31:20.911Z,7.25
2022-08-01T18:33:49.410Z,6.38
2022-08-01T18:36:33.160Z,6.40
2022-08-01T18:39:06.166Z,6.85
2022-08-01T18:42:01.551Z,7.50
2022-08-01T18:44:30.249Z,6.05
2022-08-01T18:47:00.701Z,6.57
2022-08-01T18:49:54.379Z,6.93
2022-08-01T18:52:28.635Z,7.10
2022-08-01T18:55:00.355Z,6.68
2022-08-01T18:57:54.213Z,6.63
2022-08-01T19:00:23.248Z,6.57
2022-08-01T19:02:54.447Z,6.40
2022-08-01T19:05:49.719Z,7.13
2022-08-01T19:08:18.505Z,7.30
2022-08-01T19:10:47.704Z,7.32
2022-08-01T19:13:17.104Z,6.38
2022-08-01T19:15:45.739Z,6.90
2022-08-01T19:24:54.076Z,6.82
2022-08-01T19:27:25.174Z,6.78
2022-08-01T19:30:19.733Z,10.07
2022-08-01T19:32:50.526Z,7.50
2022-08-01T19:35:18.825Z,7.60
2022-08-01T19:37:49.204Z,9.68
2022-08-01T19:40:26.988Z,10.07
2022-08-01T19:43:21.589Z,8.93
2022-08-01T19:45:55.320Z,9.23
2022-08-01T19:48:24.018Z,8.18
2022-08-01T19:50:53.674Z,7.35
2022-08-01T19:53:25.295Z,7.88
2022-08-01T19:55:55.639Z,10.48
2022-08-01T19:58:27.330Z,9.13
2022-08-01T20:01:21.862Z,10.82
2022-08-01T20:03:51.503Z,10.80
2022-08-01T20:06:24.532Z,10.95
2022-08-01T20:08:55.289Z,11.00
2022-08-01T20:11:24.057Z,13.32
2022-08-01T20:13:52.448Z,9.93
2022-08-01T20:16:20.373Z,9.63
2022-08-01T20:18:48.565Z,11.07
2022-08-01T20:21:18.010Z,16.27
2022-08-01T20:23:46.643Z,11.30
2022-08-01T20:26:16.456Z,9.45
2022-08-01T20:28:49.646Z,11.45
2022-08-01T20:31:18.305Z,16.27
2022-08-01T20:33:48.777Z,10.80
2022-08-01T20:36:24.902Z,12.55
2022-08-01T20:38:56.804Z,10.18
2022-08-01T20:41:27.214Z,11.70
2022-08-01T20:43:57.329Z,12.63
2022-08-01T20:46:29.498Z,10.73
2022-08-01T20:49:07.192Z,10.73
2022-08-01T20:51:42.055Z,10.85
2022-08-01T20:54:11.054Z,9.68
2022-08-01T20:56:41.895Z,9.20
2022-08-01T20:59:39.705Z,8.68
2022-08-01T21:02:17.774Z,9.07
2022-08-01T21:04:49.435Z,14.30
2022-08-01T21:07:27.455Z,14.68
2022-08-01T21:10:24.870Z,13.02
2022-08-01T21:13:24.825Z,19.20
2022-08-01T21:16:22.201Z,12.45
2022-08-01T21:27:33.298Z,11.77
2022-08-01T21:30:09.134Z,11.65
2022-08-01T21:32:38.988Z,9.85
2022-08-01T21:35:16.607Z,14.25
2022-08-01T21:37:52.632Z,9.18
2022-08-01T21:40:28.711Z,14.18
2022-08-01T21:43:04.960Z,20.52
2022-08-01T21:45:58.014Z,20.42
2022-08-01T21:51:52.029Z,10.95
2022-08-01T22:04:18.283Z,10.70
2022-08-01T22:06:50.094Z,14.23
2022-08-01T22:09:21.949Z,19.67
2022-08-01T22:11:59.323Z,46.63
2022-08-01T22:14:31.880Z,14.10
2022-08-01T22:17:00.420Z,15.00
2022-08-01T22:19:32.414Z,11.07
2022-08-01T22:22:51.131Z,14.23
2022-08-01T22:25:02.589Z,12.13
2022-08-01T22:28:08.692Z,13.23
2022-08-01T22:30:19.453Z,16.33
2022-08-01T22:33:07.552Z,13.25
2022-08-01T22:35:36.866Z,13.32
2022-08-01T22:38:09.705Z,11.57
2022-08-01T22:40:44.382Z,11.13
2022-08-01T22:43:24.302Z,11.13
2022-08-01T22:46:04.959Z,9.65
2022-08-01T22:48:49.988Z,9.73
2022-08-01T22:51:27.642Z,10.50
2022-08-01T22:54:05.671Z,9.23
2022-08-01T22:56:39.426Z,9.30
2022-08-01T22:59:15.676Z,10.10
2022-08-01T23:01:50.462Z,10.50
2022-08-01T23:04:48.815Z,10.73
2022-08-01T23:07:24.657Z,16.05
2022-08-01T23:09:55.416Z,30.98
2022-08-01T23:12:26.131Z,31.13
2022-08-01T23:14:56.207Z,11.88
2022-08-01T23:17:28.881Z,10.80
2022-08-01T23:20:03.937Z,13.07
2022-08-01T23:22:33.770Z,13.35
2022-08-01T23:25:07.054Z,13.90
2022-08-01T23:28:04.924Z,13.45
2022-08-01T23:30:35.425Z,17.55
2022-08-01T23:33:03.963Z,17.83
2022-08-01T23:35:36.892Z,26.30
2022-08-01T23:38:08.131Z,25.52
2022-08-01T23:40:36.225Z,27.20
2022-08-01T23:43:05.977Z,28.23
2022-08-01T23:46:04.510Z,31.75
2022-08-01T23:48:31.217Z,18.25
2022-08-01T23:50:59.145Z,21.83
2022-08-01T23:53:31.001Z,20.65
2022-08-01T23:56:02.408Z,16.30
2022-08-01T23:58:31.328Z,13.45
